createdAt,value
2023-04-02T00:03:45.310Z,97041.31
2023-04-02T00:06:33.156Z,97040.66
2023-04-02T00:09:13.569Z,97039.22
2023-04-02T00:11:49.169Z,97046.44
2023-04-02T00:14:33.566Z,97043.31
2023-04-02T00:17:05.039Z,97046.47
2023-04-02T00:19:38.321Z,97049.75
2023-04-02T00:22:09.669Z,97050.91
2023-04-02T00:24:40.120Z,97050.47
2023-04-02T00:27:12.340Z,97059.91
2023-04-02T00:29:50.793Z,97051.44
2023-04-02T00:32:22.480Z,97054.69
2023-04-02T00:34:50.017Z,97058.69
2023-04-02T00:37:23.868Z,97058.53
2023-04-02T00:40:02.656Z,97061.03
2023-04-02T00:42:34.491Z,97065.22
2023-04-02T00:45:06.629Z,97065.91
2023-04-02T00:47:37.651Z,97051.31
2023-04-02T00:50:16.909Z,97061.50
2023-04-02T00:52:48.251Z,97069.84
2023-04-02T00:55:21.748Z,97068.16
2023-04-02T00:57:52.992Z,97066.16
2023-04-02T01:00:32.372Z,97067.63
2023-04-02T01:03:17.923Z,97065.31
2023-04-02T01:05:51.174Z,97073.34
2023-04-02T01:08:29.738Z,97081.38
2023-04-02T01:11:29.024Z,97077.81
2023-04-02T01:14:02.943Z,97078.28
2023-04-02T01:16:37.011Z,97077.88
2023-04-02T01:19:44.387Z,97079.25
2023-04-02T01:22:31.018Z,97080.91
2023-04-02T01:24:58.544Z,97083.88
2023-04-02T01:27:51.951Z,97086.84
2023-04-02T01:30:21.202Z,97086.84
2023-04-02T01:32:51.312Z,97093.84
2023-04-02T01:35:19.456Z,97085.06
2023-04-02T01:37:59.126Z,97092.00
2023-04-02T01:40:35.272Z,97092.81
2023-04-02T01:43:35.263Z,97091.31
2023-04-02T01:46:24.363Z,97098.22
2023-04-02T01:48:57.410Z,97106.13
2023-04-02T01:51:33.822Z,97092.03
2023-04-02T01:54:14.506Z,97102.66
2023-04-02T01:56:42.870Z,97108.25
2023-04-02T01:59:11.644Z,97106.22
2023-04-02T02:01:51.855Z,97103.13
2023-04-02T02:04:22.900Z,97103.13
2023-04-02T02:06:51.173Z,97109.97
2023-04-02T02:09:32.772Z,97112.56
2023-04-02T02:12:02.879Z,97106.00
2023-04-02T02:14:31.363Z,97113.22
2023-04-02T02:17:02.512Z,97121.13
2023-04-02T02:19:37.062Z,97118.91
2023-04-02T02:22:26.149Z,97118.88
2023-04-02T02:24:54.636Z,97127.13
2023-04-02T02:27:24.217Z,97126.69
2023-04-02T02:30:04.155Z,97131.44
2023-04-02T02:32:33.614Z,97129.88
2023-04-02T02:35:20.260Z,97131.16
2023-04-02T02:37:55.351Z,97131.09
2023-04-02T02:40:30.657Z,97134.88
2023-04-02T02:43:03.535Z,97133.94
2023-04-02T02:45:38.037Z,97136.59
2023-04-02T02:48:12.985Z,97143.25
2023-04-02T02:50:45.790Z,97139.03
2023-04-02T02:53:21.412Z,97138.22
2023-04-02T02:55:54.043Z,97145.56
2023-04-02T02:58:28.608Z,97149.59
2023-04-02T03:01:18.499Z,97151.59
2023-04-02T03:03:49.005Z,97153.59
2023-04-02T03:06:17.782Z,97154.22
2023-04-02T03:09:14.098Z,97156.94
2023-04-02T03:11:57.436Z,97151.06
2023-04-02T03:15:03.575Z,97159.72
2023-04-02T03:17:46.724Z,97163.06
2023-04-02T03:20:49.040Z,97160.50
2023-04-02T03:23:27.552Z,97163.16
2023-04-02T03:26:02.737Z,97164.00
2023-04-02T03:28:33.560Z,97175.91
2023-04-02T03:31:11.300Z,97168.56
2023-04-02T03:33:43.719Z,97179.28
2023-04-02T03:36:28.671Z,97176.19
2023-04-02T03:39:11.496Z,97188.84
2023-04-02T03:41:45.534Z,97192.19
2023-04-02T03:44:44.870Z,97194.09
2023-04-02T03:47:31.613Z,97197.47
2023-04-02T03:50:06.298Z,97200.78
2023-04-02T03:52:37.486Z,97203.41
2023-04-02T03:55:19.465Z,97209.53
2023-04-02T03:58:11.787Z,97216.09
2023-04-02T04:01:02.083Z,97219.34
2023-04-02T04:03:42.920Z,97209.94
2023-04-02T04:06:20.201Z,97221.53
2023-04-02T04:08:54.826Z,97230.34
2023-04-02T04:11:37.889Z,97229.81
2023-04-02T04:14:13.936Z,97241.28
2023-04-02T04:16:54.202Z,97248.53
2023-04-02T04:19:32.686Z,97255.28
2023-04-02T04:22:11.113Z,97252.28
2023-04-02T04:24:41.423Z,97250.81
2023-04-02T04:27:34.740Z,97254.47
2023-04-02T04:30:25.832Z,97263.16
2023-04-02T04:33:04.160Z,97266.91
2023-04-02T04:35:40.932Z,97271.75
2023-04-02T04:38:15.831Z,97278.75
2023-04-02T04:40:53.942Z,97283.13
2023-04-02T04:43:40.872Z,97286.22
2023-04-02T04:46:26.303Z,97309.56
2023-04-02T04:49:17.303Z,97309.28
2023-04-02T04:52:08.181Z,97321.06
2023-04-02T04:54:39.263Z,97319.69
2023-04-02T04:57:31.779Z,97320.56
2023-04-02T05:00:29.253Z,97324.44
2023-04-02T05:03:14.770Z,97327.69
2023-04-02T05:05:42.550Z,97339.38
2023-04-02T05:08:17.743Z,97342.53
2023-04-02T05:11:00.438Z,97346.38
2023-04-02T05:13:33.481Z,97360.44
2023-04-02T05:16:20.507Z,97360.84
2023-04-02T05:18:59.428Z,97352.31
2023-04-02T05:21:44.088Z,97376.03
2023-04-02T05:24:39.565Z,97376.94
2023-04-02T05:27:21.381Z,97378.00
2023-04-02T05:29:59.565Z,97387.44
2023-04-02T05:32:34.842Z,97388.97
2023-04-02T05:35:07.753Z,97400.63
2023-04-02T05:37:40.695Z,97403.56
2023-04-02T05:40:27.683Z,97409.91
2023-04-02T05:42:56.637Z,97412.69
2023-04-02T05:45:39.184Z,97418.44
2023-04-02T05:48:21.468Z,97420.66
2023-04-02T05:50:55.538Z,97426.16
2023-04-02T05:53:40.292Z,97432.97
2023-04-02T05:56:18.713Z,97433.78
2023-04-02T05:58:56.461Z,97438.69
2023-04-02T06:01:45.816Z,97445.75
2023-04-02T06:04:20.573Z,97455.91
2023-04-02T06:07:16.870Z,97460.47
2023-04-02T06:10:03.725Z,97465.06
2023-04-02T06:13:04.040Z,97478.72
2023-04-02T06:15:38.684Z,97467.25
2023-04-02T06:18:47.874Z,97483.69
2023-04-02T06:21:18.665Z,97495.50
2023-04-02T06:24:01.904Z,97494.34
2023-04-02T06:26:38.573Z,97494.25
2023-04-02T06:29:15.668Z,97505.16
2023-04-02T06:31:52.584Z,97514.25
2023-04-02T06:34:24.211Z,97518.44
2023-04-02T06:37:04.444Z,97521.41
2023-04-02T06:39:34.527Z,97536.50
2023-04-02T06:42:22.137Z,97541.41
2023-04-02T06:45:01.338Z,97542.03
2023-04-02T06:48:15.848Z,97552.84
2023-04-02T06:50:57.134Z,97559.94
2023-04-02T06:53:38.239Z,97574.19
2023-04-02T06:56:35.882Z,97573.09
2023-04-02T06:59:04.827Z,97586.53
2023-04-02T07:01:37.552Z,97585.56
2023-04-02T07:04:05.597Z,97594.47
2023-04-02T07:06:43.758Z,97603.59
2023-04-02T07:09:13.645Z,97611.59
2023-04-02T07:11:48.558Z,97605.25
2023-04-02T07:14:20.614Z,97613.88
2023-04-02T07:16:58.018Z,97622.66
2023-04-02T07:19:25.151Z,97635.06
2023-04-02T07:21:56.382Z,97632.69
2023-04-02T07:24:26.226Z,97636.22
2023-04-02T07:26:53.602Z,97652.66
2023-04-02T07:29:21.242Z,97658.06
2023-04-02T07:31:51.044Z,97660.91
2023-04-02T07:34:20.978Z,97657.41
2023-04-02T07:36:51.265Z,97675.41
2023-04-02T07:39:20.910Z,97667.78
2023-04-02T07:41:58.012Z,97685.28
2023-04-02T07:44:25.074Z,97683.38
2023-04-02T07:46:52.829Z,97690.44
2023-04-02T07:49:19.873Z,97695.25
2023-04-02T07:51:47.783Z,97697.41
2023-04-02T07:54:14.904Z,97705.72
2023-04-02T07:56:42.452Z,97711.81
2023-04-02T07:59:10.780Z,97713.56
2023-04-02T08:01:38.817Z,97723.28
2023-04-02T08:04:08.375Z,97715.69
2023-04-02T08:06:42.092Z,97723.69
2023-04-02T08:09:32.026Z,97734.66
2023-04-02T08:12:07.639Z,97733.31
2023-04-02T08:14:34.727Z,97742.69
2023-04-02T08:17:02.233Z,97747.78
2023-04-02T08:19:29.873Z,97747.53
2023-04-02T08:21:57.973Z,97757.28
2023-04-02T08:24:28.337Z,97759.19
2023-04-02T08:26:57.699Z,97760.34
2023-04-02T08:29:25.726Z,97771.75
2023-04-02T08:31:53.569Z,97773.50
2023-04-02T08:34:20.820Z,97774.31
2023-04-02T08:36:48.557Z,97775.78
2023-04-02T08:39:19.249Z,97785.66
2023-04-02T08:42:40.325Z,97794.97
2023-04-02T08:45:24.199Z,97803.66
2023-04-02T08:48:04.907Z,97805.47
2023-04-02T08:50:38.228Z,97815.28
2023-04-02T08:53:28.148Z,97811.63
2023-04-02T08:56:06.108Z,97824.53
2023-04-02T08:58:43.461Z,97823.03
2023-04-02T09:01:48.337Z,97821.28
2023-04-02T09:04:20.397Z,97824.38
2023-04-02T09:06:50.352Z,97831.19
2023-04-02T09:09:17.738Z,97831.47
2023-04-02T09:12:05.577Z,97831.59
2023-04-02T09:15:18.588Z,97834.72
2023-04-02T09:18:19.291Z,97840.00
2023-04-02T09:21:37.147Z,97849.59
2023-04-02T09:24:05.616Z,97853.94
2023-04-02T09:26:34.623Z,97860.38
2023-04-02T09:29:12.804Z,97865.47
2023-04-02T09:31:45.203Z,97862.44
2023-04-02T09:34:36.996Z,97861.25
2023-04-02T09:37:18.952Z,97876.75
2023-04-02T09:39:46.585Z,97868.41
2023-04-02T09:42:46.795Z,97883.34
2023-04-02T09:45:24.286Z,97889.09
2023-04-02T09:48:20.450Z,97895.38
2023-04-02T09:50:47.853Z,97901.88
2023-04-02T09:53:30.238Z,97894.75
2023-04-02T09:56:14.292Z,97908.44
2023-04-02T09:58:45.809Z,97919.53
2023-04-02T10:01:29.629Z,97915.91
2023-04-02T10:04:00.012Z,97918.22
2023-04-02T10:06:29.736Z,97924.34
2023-04-02T10:09:21.664Z,97925.94
2023-04-02T10:11:52.206Z,97942.50
2023-04-02T10:14:25.136Z,97952.91
2023-04-02T10:17:07.970Z,97951.31
2023-04-02T10:19:41.655Z,97963.38
2023-04-02T10:22:21.129Z,97950.38
2023-04-02T10:24:49.397Z,97967.16
2023-04-02T10:27:55.121Z,97973.75
2023-04-02T10:31:01.886Z,97973.28
2023-04-02T10:33:37.472Z,97975.84
2023-04-02T10:36:19.554Z,97988.97
2023-04-02T10:39:05.228Z,97990.56
2023-04-02T10:41:32.859Z,97989.94
2023-04-02T10:44:16.694Z,97989.59
2023-04-02T10:47:08.168Z,97987.03
2023-04-02T10:49:50.910Z,97987.94
2023-04-02T10:52:31.211Z,98002.81
2023-04-02T10:55:04.764Z,97996.47
2023-04-02T10:57:38.305Z,98000.94
2023-04-02T11:00:08.263Z,98010.09
2023-04-02T11:02:54.190Z,98007.28
2023-04-02T11:05:45.938Z,98019.63
2023-04-02T11:08:47.716Z,98025.06
2023-04-02T11:11:19.216Z,98031.66
2023-04-02T11:14:04.368Z,98043.84
2023-04-02T11:16:34.352Z,98045.25
2023-04-02T11:19:15.609Z,98057.94
2023-04-02T11:21:58.055Z,98058.06
2023-04-02T11:24:33.090Z,98054.56
2023-04-02T11:27:14.469Z,98048.56
2023-04-02T11:29:58.700Z,98074.69
2023-04-02T11:32:32.535Z,98074.16
2023-04-02T11:35:07.472Z,98082.00
2023-04-02T11:37:39.848Z,98084.75
2023-04-02T11:40:11.462Z,98092.41
2023-04-02T11:42:41.896Z,98091.59
2023-04-02T11:45:21.864Z,98098.53
2023-04-02T11:48:02.077Z,98097.00
2023-04-02T11:50:35.769Z,98111.03
2023-04-02T11:53:06.772Z,98110.81
2023-04-02T11:55:39.549Z,98112.75
2023-04-02T11:58:29.451Z,98110.41
2023-04-02T12:01:05.553Z,98116.53
2023-04-02T12:03:47.854Z,98127.94
2023-04-02T12:06:47.241Z,98121.47
2023-04-02T12:09:33.359Z,98132.06
2023-04-02T12:12:17.148Z,98131.81
2023-04-02T12:15:01.933Z,98136.34
2023-04-02T12:17:32.623Z,98143.56
2023-04-02T12:20:22.878Z,98158.91
2023-04-02T12:22:53.268Z,98159.19
2023-04-02T12:25:31.476Z,98158.38
2023-04-02T12:28:19.360Z,98168.09
2023-04-02T12:30:49.001Z,98171.16
2023-04-02T12:33:22.557Z,98170.94
2023-04-02T12:35:55.030Z,98170.44
2023-04-02T12:38:29.421Z,98173.22
2023-04-02T12:41:04.661Z,98172.44
2023-04-02T12:43:36.889Z,98173.06
2023-04-02T12:46:08.387Z,98182.31
2023-04-02T12:48:36.614Z,98182.13
2023-04-02T12:51:06.735Z,98185.41
2023-04-02T12:53:40.777Z,98186.16
2023-04-02T12:56:18.597Z,98191.44
2023-04-02T12:59:07.309Z,98199.84
2023-04-02T13:01:34.557Z,98204.59
2023-04-02T13:04:18.620Z,98204.09
2023-04-02T13:06:52.404Z,98201.03
2023-04-02T13:09:42.228Z,98201.38
2023-04-02T13:12:45.153Z,98211.28
2023-04-02T13:15:47.357Z,98207.75
2023-04-02T13:18:24.328Z,98206.94
2023-04-02T13:24:42.141Z,98215.69
2023-04-02T13:27:15.445Z,98226.81
2023-04-02T13:29:50.061Z,98224.97
2023-04-02T13:32:52.572Z,98224.91
2023-04-02T13:35:30.347Z,98224.69
2023-04-02T13:38:06.392Z,98235.91
2023-04-02T13:40:34.618Z,98245.91
2023-04-02T13:43:03.511Z,98251.56
2023-04-02T13:45:43.805Z,98250.53
2023-04-02T13:48:23.584Z,98248.91
2023-04-02T13:50:53.615Z,98255.44
2023-04-02T13:53:33.714Z,98258.22
2023-04-02T13:56:02.557Z,98264.22
2023-04-02T13:58:31.189Z,98258.53
2023-04-02T14:00:58.890Z,98268.94
2023-04-02T14:03:37.537Z,98270.91
2023-04-02T14:06:12.017Z,98273.63
2023-04-02T14:09:10.557Z,98278.22
2023-04-02T14:11:47.570Z,98275.13
2023-04-02T14:14:43.627Z,98271.84
2023-04-02T14:17:35.559Z,98284.78
2023-04-02T14:20:25.660Z,98287.22
2023-04-02T14:23:24.019Z,98291.50
2023-04-02T14:26:10.219Z,98290.88
2023-04-02T14:28:57.654Z,98300.19
2023-04-02T14:32:15.620Z,98306.34
2023-04-02T14:34:59.412Z,98300.50
2023-04-02T14:38:56.819Z,98318.06
2023-04-02T14:45:57.581Z,98304.00
2023-04-02T14:49:34.271Z,98313.03
2023-04-02T14:52:13.517Z,98319.59
2023-04-02T14:54:55.617Z,98319.47
2023-04-02T15:01:21.745Z,98329.78
2023-04-02T15:04:07.089Z,98335.50
2023-04-02T15:06:49.882Z,98341.22
2023-04-02T15:09:39.360Z,98345.75
2023-04-02T15:12:28.496Z,98356.75
2023-04-02T15:15:46.373Z,98345.69
2023-04-02T15:18:54.284Z,98355.00
2023-04-02T15:22:25.846Z,98361.31
2023-04-02T15:25:39.813Z,98365.59
2023-04-02T15:28:42.428Z,98368.09
2023-04-02T15:36:33.006Z,98366.88
2023-04-02T15:39:26.048Z,98382.75
2023-04-02T15:46:10.299Z,98391.22
2023-04-02T15:48:41.854Z,98397.38
2023-04-02T15:51:28.926Z,98395.38
2023-04-02T15:54:18.691Z,98400.75
2023-04-02T15:57:16.644Z,98403.56
2023-04-02T16:00:13.070Z,98409.44
2023-04-02T16:03:23.591Z,98417.22
2023-04-02T16:06:34.033Z,98423.56
2023-04-02T16:09:12.330Z,98417.78
2023-04-02T16:11:40.586Z,98433.13
2023-04-02T16:14:21.347Z,98430.50
2023-04-02T16:16:52.594Z,98431.09
2023-04-02T16:19:34.885Z,98434.00
2023-04-02T16:22:31.702Z,98438.03
2023-04-02T16:25:04.661Z,98430.09
2023-04-02T16:32:53.058Z,98458.56
2023-04-02T16:36:11.428Z,98449.38
2023-04-02T16:39:15.514Z,98453.41
2023-04-02T16:42:10.534Z,98456.13
2023-04-02T16:45:19.289Z,98449.88
2023-04-02T16:48:27.802Z,98459.41
2023-04-02T16:51:24.118Z,98460.97
2023-04-02T16:54:44.939Z,98468.97
2023-04-02T16:58:02.070Z,98472.94
2023-04-02T17:01:28.711Z,98478.09
2023-04-02T17:04:09.004Z,98478.41
2023-04-02T17:06:54.219Z,98475.09
2023-04-02T17:09:37.829Z,98480.09
2023-04-02T17:12:30.522Z,98483.00
2023-04-02T17:15:24.580Z,98478.53
2023-04-02T17:17:59.017Z,98484.50
2023-04-02T17:20:27.299Z,98490.03
2023-04-02T17:22:56.102Z,98492.13
2023-04-02T17:25:32.992Z,98498.66
2023-04-02T17:28:02.753Z,98498.41
2023-04-02T17:31:01.801Z,98502.97
2023-04-02T17:33:28.689Z,98500.81
2023-04-02T17:35:59.599Z,98506.16
2023-04-02T17:38:42.178Z,98511.81
2023-04-02T17:41:47.908Z,98521.69
2023-04-02T17:45:01.579Z,98523.56
2023-04-02T17:47:47.433Z,98523.22
2023-04-02T17:50:35.542Z,98533.69
2023-04-02T17:53:13.246Z,98531.72
2023-04-02T17:55:49.797Z,98535.97
2023-04-02T17:58:22.915Z,98543.72
2023-04-02T18:01:08.159Z,98549.88
2023-04-02T18:03:55.739Z,98554.31
2023-04-02T18:06:44.604Z,98552.75
2023-04-02T18:09:25.833Z,98560.38
2023-04-02T18:12:18.360Z,98557.53
2023-04-02T18:15:09.533Z,98565.38
2023-04-02T18:17:52.966Z,98567.91
2023-04-02T18:20:20.316Z,98569.97
2023-04-02T18:23:16.041Z,98580.94
2023-04-02T18:25:52.143Z,98573.72
2023-04-02T18:28:44.111Z,98584.59
2023-04-02T18:31:38.041Z,98592.25
2023-04-02T18:34:13.812Z,98580.50
2023-04-02T18:37:01.435Z,98591.38
2023-04-02T18:39:41.664Z,98602.25
2023-04-02T18:42:15.070Z,98596.00
2023-04-02T18:45:00.611Z,98602.47
2023-04-02T18:47:46.742Z,98597.84
2023-04-02T18:50:46.864Z,98608.63
2023-04-02T18:53:17.954Z,98617.16
2023-04-02T18:55:52.763Z,98617.56
2023-04-02T18:58:37.010Z,98625.34
2023-04-02T19:01:08.889Z,98622.78
2023-04-02T19:03:41.730Z,98628.00
2023-04-02T19:06:24.221Z,98627.41
2023-04-02T19:09:17.099Z,98629.78
2023-04-02T19:11:43.991Z,98630.19
2023-04-02T19:14:14.393Z,98637.59
2023-04-02T19:16:42.308Z,98641.34
2023-04-02T19:19:14.145Z,98635.06
2023-04-02T19:21:51.707Z,98641.19
2023-04-02T19:24:56.903Z,98648.34
2023-04-02T19:27:29.763Z,98654.69
2023-04-02T19:30:15.562Z,98651.56
2023-04-02T19:32:58.141Z,98655.38
2023-04-02T19:35:54.293Z,98644.84
2023-04-02T19:38:43.234Z,98648.59
2023-04-02T19:41:48.628Z,98657.91
2023-04-02T19:44:18.109Z,98655.19
2023-04-02T19:46:45.966Z,98666.00
2023-04-02T19:49:24.213Z,98665.56
2023-04-02T19:52:01.201Z,98667.69
2023-04-02T19:54:28.301Z,98661.75
2023-04-02T19:57:03.110Z,98672.44
2023-04-02T19:59:39.223Z,98657.31
2023-04-02T20:02:16.037Z,98666.31
2023-04-02T20:04:43.014Z,98673.28
2023-04-02T20:07:13.876Z,98667.72
2023-04-02T20:09:43.009Z,98672.53
2023-04-02T20:12:10.063Z,98675.06
2023-04-02T20:14:37.288Z,98677.16
2023-04-02T20:17:04.211Z,98678.28
2023-04-02T20:19:31.627Z,98682.53
2023-04-02T20:21:59.311Z,98681.38
2023-04-02T20:24:26.238Z,98685.72
2023-04-02T20:26:53.252Z,98683.25
2023-04-02T20:29:21.329Z,98693.53
2023-04-02T20:31:48.665Z,98686.81
2023-04-02T20:34:15.893Z,98695.41
2023-04-02T20:36:49.644Z,98698.56
2023-04-02T20:39:22.522Z,98699.72
2023-04-02T20:41:49.393Z,98698.03
2023-04-02T20:44:16.872Z,98704.59
2023-04-02T20:46:44.207Z,98712.16
2023-04-02T20:49:11.715Z,98714.34
2023-04-02T20:51:40.852Z,98715.31
2023-04-02T20:54:07.909Z,98726.44
2023-04-02T20:56:35.087Z,98724.66
2023-04-02T20:59:03.614Z,98723.09
2023-04-02T21:01:31.668Z,98725.06
2023-04-02T21:04:02.330Z,98735.97
2023-04-02T21:06:36.151Z,98727.13
2023-04-02T21:09:09.491Z,98723.53
2023-04-02T21:11:44.732Z,98730.97
2023-04-02T21:14:12.425Z,98728.22
2023-04-02T21:16:40.155Z,98734.06
2023-04-02T21:19:09.333Z,98725.25
2023-04-02T21:21:39.686Z,98723.06
2023-04-02T21:24:09.142Z,98733.66
2023-04-02T21:26:39.640Z,98733.06
2023-04-02T21:29:07.283Z,98738.19
2023-04-02T21:31:39.000Z,98730.09
2023-04-02T21:34:08.681Z,98734.94
2023-04-02T21:36:39.632Z,98739.53
2023-04-02T21:39:09.506Z,98740.31
2023-04-02T21:41:39.355Z,98742.59
2023-04-02T21:44:08.419Z,98742.84
2023-04-02T21:46:38.617Z,98742.41
2023-04-02T21:49:09.782Z,98741.81
2023-04-02T21:51:38.726Z,98753.56
2023-04-02T21:54:07.579Z,98740.81
2023-04-02T21:56:39.229Z,98747.47
2023-04-02T21:59:12.603Z,98745.25
2023-04-02T22:01:45.979Z,98746.94
2023-04-02T22:04:20.981Z,98750.34
2023-04-02T22:06:48.476Z,98748.84
2023-04-02T22:09:18.351Z,98745.41
2023-04-02T22:11:48.808Z,98744.53
2023-04-02T22:14:15.899Z,98745.56
2023-04-02T22:16:43.833Z,98752.75
2023-04-02T22:19:14.331Z,98757.88
2023-04-02T22:21:42.004Z,98754.94
2023-04-02T22:24:14.368Z,98754.59
2023-04-02T22:26:41.926Z,98754.31
2023-04-02T22:29:08.726Z,98748.63
2023-04-02T22:31:35.952Z,98763.69
2023-04-02T22:34:05.740Z,98764.63
2023-04-02T22:36:33.372Z,98762.41
2023-04-02T22:39:01.258Z,98759.34
2023-04-02T22:41:29.393Z,98763.50
2023-04-02T22:43:57.606Z,98752.41
2023-04-02T22:46:26.798Z,98753.69
2023-04-02T22:48:56.020Z,98759.09
2023-04-02T22:51:24.228Z,98759.13
2023-04-02T22:53:54.168Z,98747.03
2023-04-02T22:56:25.268Z,98752.38
2023-04-02T22:58:52.809Z,98758.50
2023-04-02T23:01:23.995Z,98761.38
2023-04-02T23:03:56.456Z,98753.00
2023-04-02T23:06:25.495Z,98755.38
2023-04-02T23:08:53.635Z,98755.84
2023-04-02T23:11:24.243Z,98761.13
2023-04-02T23:13:53.034Z,98760.97
2023-04-02T23:16:24.419Z,98763.34
2023-04-02T23:18:51.823Z,98762.88
2023-04-02T23:21:20.222Z,98757.91
2023-04-02T23:23:48.877Z,98767.09
2023-04-02T23:26:16.999Z,98761.72
2023-04-02T23:28:44.753Z,98747.75
2023-04-02T23:31:16.983Z,98760.09
2023-04-02T23:33:44.073Z,98760.88
2023-04-02T23:36:15.172Z,98761.72
2023-04-02T23:38:42.285Z,98756.13
2023-04-02T23:41:14.900Z,98760.66
2023-04-02T23:43:42.625Z,98753.25
2023-04-02T23:46:12.792Z,98758.03
2023-04-02T23:48:41.263Z,98743.00
2023-04-02T23:51:08.006Z,98746.38
2023-04-02T23:53:35.518Z,98741.41
2023-04-02T23:56:02.528Z,98749.28
2023-04-02T23:58:29.608Z,98747.88
